createdAt,value
2022-10-30T00:00:34.231Z,23.90
2022-10-30T00:01:34.262Z,26.50
2022-10-30T00:02:34.251Z,27.50
2022-10-30T00:03:34.207Z,31.60
2022-10-30T00:04:34.207Z,30.60
2022-10-30T00:05:34.198Z,29.00
2022-10-30T00:06:34.193Z,31.20
2022-10-30T00:07:34.189Z,32.40
2022-10-30T00:08:34.182Z,33.60
2022-10-30T00:09:34.180Z,33.80
2022-10-30T00:10:34.174Z,32.20
2022-10-30T00:11:34.168Z,28.00
2022-10-30T00:12:34.162Z,26.00
2022-10-30T00:13:34.159Z,24.60
2022-10-30T00:14:34.147Z,25.20
2022-10-30T00:15:34.149Z,25.40
2022-10-30T00:16:34.140Z,25.40
2022-10-30T00:17:34.137Z,26.40
2022-10-30T00:18:34.132Z,24.50
2022-10-30T00:19:34.132Z,29.50
2022-10-30T00:20:34.121Z,32.30
2022-10-30T00:21:34.128Z,32.90
2022-10-30T00:22:34.118Z,35.00
2022-10-30T00:23:34.110Z,32.40
2022-10-30T00:24:34.099Z,31.50
2022-10-30T00:25:34.096Z,29.10
2022-10-30T00:26:34.089Z,26.20
2022-10-30T00:27:34.091Z,24.80
2022-10-30T00:28:34.079Z,23.70
2022-10-30T00:29:34.075Z,24.50
2022-10-30T00:30:34.071Z,25.30
2022-10-30T00:31:34.067Z,26.40
2022-10-30T00:32:34.062Z,27.50
2022-10-30T00:33:34.053Z,26.40
2022-10-30T00:34:34.052Z,27.30
2022-10-30T00:35:34.104Z,24.70
2022-10-30T00:36:34.045Z,23.50
2022-10-30T00:37:34.036Z,26.40
2022-10-30T00:38:34.030Z,24.60
2022-10-30T00:39:34.028Z,26.50
2022-10-30T00:40:34.017Z,32.30
2022-10-30T00:41:34.012Z,34.50
2022-10-30T00:42:34.009Z,31.30
2022-10-30T00:43:34.011Z,31.60
2022-10-30T00:44:33.998Z,31.10
2022-10-30T00:45:33.995Z,28.90
2022-10-30T00:46:33.987Z,35.80
2022-10-30T00:47:33.982Z,32.50
2022-10-30T00:48:33.986Z,36.80
2022-10-30T00:49:33.971Z,38.60
2022-10-30T00:50:33.968Z,39.00
2022-10-30T00:51:33.963Z,38.90
2022-10-30T00:52:33.960Z,38.90
2022-10-30T00:53:33.952Z,41.20
2022-10-30T00:54:33.951Z,42.20
2022-10-30T00:55:33.942Z,42.20
2022-10-30T00:56:33.934Z,42.50
2022-10-30T00:57:33.930Z,43.50
2022-10-30T00:58:33.926Z,43.00
2022-10-30T00:59:33.921Z,44.80
2022-10-30T01:00:33.913Z,44.00
2022-10-30T01:01:33.992Z,44.30
2022-10-30T01:02:41.160Z,44.60
2022-10-30T01:04:37.884Z,43.90
2022-10-30T01:05:37.867Z,44.40
2022-10-30T01:07:41.850Z,42.90
2022-10-30T01:08:41.878Z,44.10
2022-10-30T01:10:45.830Z,39.30
2022-10-30T01:11:45.823Z,42.70
2022-10-30T01:13:38.759Z,38.70
2022-10-30T01:14:38.749Z,38.70
2022-10-30T01:16:31.848Z,35.40
2022-10-30T01:17:31.848Z,35.60
2022-10-30T01:19:35.827Z,43.90
2022-10-30T01:20:35.812Z,43.80
2022-10-30T01:22:28.918Z,43.90
2022-10-30T01:23:28.903Z,42.10
2022-10-30T01:25:22.009Z,45.30
2022-10-30T01:26:21.995Z,45.40
2022-10-30T01:28:25.984Z,48.30
2022-10-30T01:29:25.970Z,46.40
2022-10-30T01:31:29.976Z,48.10
2022-10-30T01:32:29.951Z,49.90
2022-10-30T01:34:33.991Z,50.20
2022-10-30T01:35:33.943Z,47.50
2022-10-30T01:37:37.940Z,49.90
2022-10-30T01:38:37.925Z,49.20
2022-10-30T01:40:41.902Z,50.40
2022-10-30T01:41:41.892Z,50.50
2022-10-30T01:43:34.811Z,48.80
2022-10-30T01:44:34.798Z,50.50
2022-10-30T01:46:38.792Z,50.90
2022-10-30T01:47:38.793Z,50.90
2022-10-30T01:49:42.773Z,50.20
2022-10-30T01:50:42.760Z,45.00
2022-10-30T01:52:46.760Z,47.90
2022-10-30T01:53:46.744Z,46.70
2022-10-30T01:55:50.723Z,49.10
2022-10-30T01:56:50.716Z,46.80
2022-10-30T01:58:54.697Z,54.70
2022-10-30T01:59:54.679Z,51.80
2022-10-30T02:01:58.855Z,47.70
2022-10-30T02:02:59.042Z,49.70
2022-10-30T02:05:02.648Z,51.00
2022-10-30T02:06:02.635Z,50.90
2022-10-30T02:08:06.619Z,50.40
2022-10-30T02:09:06.606Z,48.10
2022-10-30T02:11:10.596Z,51.30
2022-10-30T02:12:10.585Z,54.60
2022-10-30T02:14:14.625Z,58.00
2022-10-30T02:15:14.609Z,57.60
2022-10-30T02:17:18.604Z,61.30
2022-10-30T02:18:18.594Z,59.50
2022-10-30T02:20:22.566Z,58.80
2022-10-30T02:21:22.555Z,56.70
2022-10-30T02:23:15.469Z,54.30
2022-10-30T02:24:15.447Z,45.00
2022-10-30T02:26:19.426Z,39.60
2022-10-30T02:27:19.416Z,40.10
2022-10-30T02:29:23.394Z,37.70
2022-10-30T02:30:23.380Z,36.90
2022-10-30T02:32:27.370Z,35.50
2022-10-30T02:33:27.355Z,37.10
2022-10-30T02:35:20.462Z,38.60
2022-10-30T02:36:20.450Z,33.40
2022-10-30T02:38:24.434Z,33.40
2022-10-30T02:39:24.421Z,44.10
2022-10-30T02:41:28.430Z,47.60
2022-10-30T02:42:28.420Z,53.50
2022-10-30T02:44:32.403Z,38.70
2022-10-30T02:45:32.390Z,42.90
2022-10-30T02:47:36.393Z,38.20
2022-10-30T02:48:36.370Z,38.40
2022-10-30T02:50:40.360Z,48.60
2022-10-30T02:51:40.349Z,52.10
2022-10-30T02:53:33.255Z,46.70
2022-10-30T02:54:33.241Z,41.80
2022-10-30T02:56:37.232Z,36.10
2022-10-30T02:57:37.218Z,36.60
2022-10-30T02:59:41.223Z,31.60
2022-10-30T03:00:41.211Z,34.10
2022-10-30T03:02:45.234Z,29.50
2022-10-30T03:03:45.184Z,31.40
2022-10-30T03:05:49.176Z,32.10
2022-10-30T03:06:49.165Z,31.70
2022-10-30T03:08:53.145Z,29.30
2022-10-30T03:09:53.130Z,30.00
2022-10-30T03:11:57.121Z,31.10
2022-10-30T03:12:57.109Z,29.70
2022-10-30T03:14:50.210Z,36.20
2022-10-30T03:15:50.197Z,36.10
2022-10-30T03:17:54.327Z,36.10
2022-10-30T03:18:54.179Z,37.10
2022-10-30T03:20:58.377Z,38.60
2022-10-30T03:21:58.367Z,35.80
2022-10-30T03:23:51.311Z,37.00
2022-10-30T03:24:51.295Z,37.10
2022-10-30T03:26:55.285Z,37.20
2022-10-30T03:27:55.638Z,35.20
2022-10-30T03:29:59.272Z,34.90
2022-10-30T03:30:59.258Z,35.70
2022-10-30T03:32:52.172Z,33.10
2022-10-30T03:33:52.156Z,36.50
2022-10-30T03:35:45.266Z,37.00
2022-10-30T03:36:45.250Z,37.40
2022-10-30T03:38:38.374Z,39.70
2022-10-30T03:39:38.357Z,37.90
2022-10-30T03:41:42.345Z,34.90
2022-10-30T03:42:42.333Z,33.40
2022-10-30T03:44:46.313Z,35.60
2022-10-30T03:45:46.309Z,36.40
2022-10-30T03:47:50.276Z,36.20
2022-10-30T03:48:50.264Z,36.30
2022-10-30T03:50:54.257Z,36.30
2022-10-30T03:51:54.252Z,36.80
2022-10-30T03:53:47.153Z,35.60
2022-10-30T03:54:47.139Z,37.40
2022-10-30T03:56:51.123Z,34.70
2022-10-30T03:57:51.113Z,33.80
2022-10-30T03:59:55.096Z,31.60
2022-10-30T04:00:55.143Z,32.90
2022-10-30T04:02:48.182Z,37.40
2022-10-30T04:03:48.164Z,39.70
2022-10-30T04:05:52.147Z,39.60
2022-10-30T04:06:52.133Z,39.20
2022-10-30T04:08:56.127Z,37.10
2022-10-30T04:09:56.115Z,35.60
2022-10-30T04:12:00.097Z,35.10
2022-10-30T04:13:00.381Z,32.90
2022-10-30T04:14:53.193Z,31.90
2022-10-30T04:15:56.018Z,32.40
2022-10-30T04:17:57.586Z,32.30
2022-10-30T04:18:57.166Z,31.80
2022-10-30T04:21:01.138Z,32.00
2022-10-30T04:22:01.130Z,31.80
2022-10-30T04:24:05.115Z,33.40
2022-10-30T04:25:05.097Z,33.80
2022-10-30T04:27:09.105Z,32.90
2022-10-30T04:28:09.095Z,32.20
2022-10-30T04:30:13.098Z,31.90
2022-10-30T04:31:13.084Z,31.60
2022-10-30T04:33:05.988Z,33.10
2022-10-30T04:34:05.975Z,35.10
2022-10-30T04:36:09.966Z,40.60
2022-10-30T04:37:09.959Z,42.10
2022-10-30T04:39:13.945Z,40.00
2022-10-30T04:40:13.921Z,39.90
2022-10-30T04:42:07.029Z,38.10
2022-10-30T04:43:07.020Z,36.40
2022-10-30T04:45:01.520Z,37.80
2022-10-30T04:46:00.121Z,37.70
2022-10-30T04:47:53.285Z,37.90
2022-10-30T04:48:53.271Z,37.90
2022-10-30T04:50:57.060Z,38.20
2022-10-30T04:51:57.049Z,36.40
2022-10-30T04:53:49.962Z,35.00
2022-10-30T04:54:49.946Z,34.70
2022-10-30T04:56:43.044Z,34.30
2022-10-30T04:57:43.036Z,34.90
2022-10-30T04:59:47.026Z,36.40
2022-10-30T05:00:47.023Z,37.20
2022-10-30T05:02:51.002Z,34.70
2022-10-30T05:03:53.797Z,32.40
2022-10-30T05:05:54.986Z,34.70
2022-10-30T05:06:54.985Z,34.50
2022-10-30T05:08:58.988Z,31.20
2022-10-30T05:09:58.959Z,32.80
2022-10-30T05:11:53.907Z,32.60
2022-10-30T05:12:52.045Z,34.40
2022-10-30T05:13:52.064Z,33.00
2022-10-30T05:14:52.030Z,33.40
2022-10-30T05:15:52.022Z,35.60
2022-10-30T05:16:52.017Z,34.10
2022-10-30T05:17:52.019Z,36.00
2022-10-30T05:18:52.001Z,36.10
2022-10-30T05:19:51.997Z,37.00
2022-10-30T05:20:51.990Z,33.30
2022-10-30T05:21:51.990Z,32.80
2022-10-30T05:22:51.984Z,31.20
2022-10-30T05:23:51.977Z,32.20
2022-10-30T05:24:51.966Z,30.20
2022-10-30T05:25:51.966Z,31.10
2022-10-30T05:26:51.959Z,30.60
2022-10-30T05:27:51.949Z,29.20
2022-10-30T05:28:51.943Z,29.80
2022-10-30T05:29:51.942Z,30.40
2022-10-30T05:30:51.950Z,29.40
2022-10-30T05:31:51.930Z,29.50
2022-10-30T05:32:51.924Z,28.50
2022-10-30T05:33:51.916Z,28.10
2022-10-30T05:34:51.912Z,26.50
2022-10-30T05:35:51.912Z,26.40
2022-10-30T05:36:51.916Z,27.90
2022-10-30T05:37:51.926Z,27.80
2022-10-30T05:38:51.918Z,27.60
2022-10-30T05:39:51.882Z,27.40
2022-10-30T05:40:51.901Z,26.70
2022-10-30T05:41:51.872Z,26.90
2022-10-30T05:42:51.864Z,26.90
2022-10-30T05:43:51.863Z,26.80
2022-10-30T05:45:06.048Z,26.80
2022-10-30T05:45:51.847Z,27.30
2022-10-30T05:46:51.877Z,26.90
2022-10-30T05:47:51.844Z,27.00
2022-10-30T05:48:51.836Z,27.40
2022-10-30T05:49:51.819Z,27.20
2022-10-30T05:50:51.824Z,26.70
2022-10-30T05:51:51.829Z,26.60
2022-10-30T05:52:51.802Z,26.30
2022-10-30T05:53:51.796Z,25.10
2022-10-30T05:54:51.788Z,25.90
2022-10-30T05:55:51.812Z,25.70
2022-10-30T05:56:51.779Z,26.10
2022-10-30T05:57:51.781Z,25.90
2022-10-30T05:58:51.771Z,25.50
2022-10-30T05:59:51.770Z,26.10
2022-10-30T06:00:51.795Z,25.80
2022-10-30T06:01:51.782Z,26.60
2022-10-30T06:02:51.868Z,25.70
2022-10-30T06:03:51.742Z,25.70
2022-10-30T06:04:51.739Z,25.90
2022-10-30T06:05:51.761Z,25.50
2022-10-30T06:06:51.719Z,26.50
2022-10-30T06:07:51.732Z,26.10
2022-10-30T06:08:51.708Z,26.10
2022-10-30T06:09:51.711Z,25.10
2022-10-30T06:10:51.711Z,24.50
2022-10-30T06:11:51.702Z,25.60
2022-10-30T06:12:51.689Z,26.50
2022-10-30T06:13:51.677Z,26.20
2022-10-30T06:14:51.679Z,25.10
2022-10-30T06:15:51.667Z,23.80
2022-10-30T06:16:51.668Z,23.70
2022-10-30T06:17:51.656Z,23.20
2022-10-30T06:18:51.658Z,24.30
2022-10-30T06:19:51.644Z,24.10
2022-10-30T06:20:51.645Z,24.30
2022-10-30T06:21:51.642Z,24.60
2022-10-30T06:22:51.639Z,25.20
2022-10-30T06:23:51.628Z,25.40
2022-10-30T06:24:51.622Z,25.20
2022-10-30T06:25:51.641Z,23.90
2022-10-30T06:26:51.671Z,23.00
2022-10-30T06:27:51.649Z,23.30
2022-10-30T06:28:51.622Z,22.60
2022-10-30T06:29:51.706Z,22.50
2022-10-30T06:30:51.588Z,22.10
2022-10-30T06:31:51.591Z,23.10
2022-10-30T06:32:51.578Z,24.20
2022-10-30T06:33:51.569Z,25.40
2022-10-30T06:34:51.564Z,25.70
2022-10-30T06:35:51.556Z,25.80
2022-10-30T06:36:51.588Z,25.40
2022-10-30T06:37:51.547Z,23.90
2022-10-30T06:38:51.540Z,23.40
2022-10-30T06:39:51.536Z,22.70
2022-10-30T06:40:51.530Z,22.10
2022-10-30T06:41:51.524Z,21.50
2022-10-30T06:42:51.517Z,21.50
2022-10-30T06:43:51.513Z,21.50
2022-10-30T06:44:51.507Z,22.20
2022-10-30T06:45:51.565Z,23.10
2022-10-30T06:46:51.495Z,24.10
2022-10-30T06:47:51.490Z,24.00
2022-10-30T06:48:51.487Z,23.30
2022-10-30T06:49:51.478Z,22.30
2022-10-30T06:50:51.474Z,21.80
2022-10-30T06:51:51.467Z,21.40
2022-10-30T06:52:51.461Z,20.30
2022-10-30T06:53:51.454Z,20.50
2022-10-30T06:54:51.449Z,21.30
2022-10-30T06:55:56.378Z,21.10
2022-10-30T06:56:51.440Z,20.70
2022-10-30T06:57:51.432Z,20.90
2022-10-30T06:58:51.428Z,21.10
2022-10-30T06:59:51.422Z,20.40
2022-10-30T07:00:51.445Z,20.70
2022-10-30T07:01:55.598Z,20.20
2022-10-30T07:02:51.408Z,20.20
2022-10-30T07:03:51.399Z,19.80
2022-10-30T07:04:58.551Z,20.00
2022-10-30T07:06:44.832Z,19.90
2022-10-30T07:07:44.819Z,20.50
2022-10-30T07:08:44.809Z,21.00
2022-10-30T07:09:44.805Z,20.50
2022-10-30T07:10:44.798Z,20.80
2022-10-30T07:11:44.796Z,18.90
2022-10-30T07:12:44.788Z,19.10
2022-10-30T07:13:44.784Z,19.00
2022-10-30T07:14:44.778Z,19.80
2022-10-30T07:15:44.781Z,18.70
2022-10-30T07:16:44.764Z,19.00
2022-10-30T07:17:44.763Z,18.90
2022-10-30T07:18:44.753Z,20.00
2022-10-30T07:19:44.749Z,18.50
2022-10-30T07:20:44.745Z,18.80
2022-10-30T07:21:44.739Z,18.70
2022-10-30T07:22:44.746Z,19.10
2022-10-30T07:23:44.730Z,20.20
2022-10-30T07:24:44.725Z,19.20
2022-10-30T07:25:44.719Z,16.50
2022-10-30T07:26:44.717Z,16.90
2022-10-30T07:27:44.707Z,16.70
2022-10-30T07:28:44.707Z,17.70
2022-10-30T07:29:44.696Z,17.90
2022-10-30T07:30:44.693Z,17.20
2022-10-30T07:31:57.575Z,17.00
2022-10-30T07:32:44.688Z,16.50
2022-10-30T07:33:44.679Z,16.80
2022-10-30T07:34:44.672Z,16.70
2022-10-30T07:35:44.670Z,15.90
2022-10-30T07:36:44.667Z,15.60
2022-10-30T07:37:44.658Z,14.90
2022-10-30T07:38:44.654Z,14.40
2022-10-30T07:39:44.646Z,14.60
2022-10-30T07:40:44.643Z,14.90
2022-10-30T07:41:49.787Z,14.70
2022-10-30T07:42:44.633Z,14.50
2022-10-30T07:43:44.625Z,13.20
2022-10-30T07:44:44.624Z,13.00
2022-10-30T07:45:44.758Z,13.20
2022-10-30T07:46:44.613Z,13.00
2022-10-30T07:47:44.607Z,12.80
2022-10-30T07:48:44.605Z,12.80
2022-10-30T07:49:44.597Z,12.70
2022-10-30T07:50:44.592Z,11.90
2022-10-30T07:51:44.588Z,12.50
2022-10-30T07:52:44.581Z,12.30
2022-10-30T07:53:44.576Z,12.20
2022-10-30T07:54:44.576Z,12.40
2022-10-30T07:55:44.568Z,12.30
2022-10-30T07:56:44.565Z,12.50
2022-10-30T07:57:44.562Z,11.90
2022-10-30T07:58:45.861Z,11.60
2022-10-30T07:59:44.568Z,12.40
2022-10-30T08:00:44.549Z,11.80
2022-10-30T08:01:44.761Z,12.10
2022-10-30T08:02:44.681Z,11.80
2022-10-30T08:03:44.531Z,11.40
2022-10-30T08:04:44.526Z,11.30
2022-10-30T08:05:44.522Z,11.10
2022-10-30T08:06:44.521Z,10.90
2022-10-30T08:07:44.512Z,11.30
2022-10-30T08:08:44.506Z,10.80
2022-10-30T08:09:44.503Z,11.10
2022-10-30T08:10:44.499Z,11.20
2022-10-30T08:11:44.501Z,10.50
2022-10-30T08:12:44.490Z,10.50
2022-10-30T08:13:44.484Z,10.40
2022-10-30T08:14:44.480Z,10.30
2022-10-30T08:15:44.477Z,10.20
2022-10-30T08:16:44.469Z,10.40
2022-10-30T08:17:44.468Z,10.10
2022-10-30T08:18:44.463Z,10.30
2022-10-30T08:19:44.464Z,10.00
2022-10-30T08:20:44.485Z,9.90
2022-10-30T08:21:44.450Z,10.00
2022-10-30T08:22:44.446Z,9.80
2022-10-30T08:23:44.439Z,9.80
2022-10-30T08:24:44.435Z,10.00
2022-10-30T08:25:44.430Z,9.80
2022-10-30T08:26:44.429Z,9.30
2022-10-30T08:27:44.422Z,9.90
2022-10-30T08:28:44.418Z,9.90
2022-10-30T08:29:44.415Z,9.80
2022-10-30T08:30:44.409Z,9.70
2022-10-30T08:31:44.413Z,9.80
2022-10-30T08:32:44.413Z,10.00
2022-10-30T08:33:44.397Z,9.50
2022-10-30T08:34:44.392Z,9.90
2022-10-30T08:35:44.387Z,9.50
2022-10-30T08:36:46.853Z,9.50
2022-10-30T08:37:44.378Z,9.50
2022-10-30T08:38:44.375Z,9.40
2022-10-30T08:39:44.371Z,9.60
2022-10-30T08:40:44.367Z,9.70
2022-10-30T08:41:44.362Z,9.30
2022-10-30T08:42:44.358Z,9.50
2022-10-30T08:43:44.353Z,9.90
2022-10-30T08:44:44.349Z,9.60
2022-10-30T08:45:44.344Z,9.60
2022-10-30T08:46:44.339Z,9.60
2022-10-30T08:47:44.341Z,9.50
2022-10-30T08:48:44.335Z,9.30
2022-10-30T08:49:44.331Z,9.50
2022-10-30T08:50:44.350Z,9.30
2022-10-30T08:51:44.320Z,9.60
2022-10-30T08:52:44.319Z,9.50
2022-10-30T08:53:44.313Z,9.40
2022-10-30T08:54:44.308Z,9.50
2022-10-30T08:55:44.304Z,9.40
2022-10-30T08:56:44.298Z,9.50
2022-10-30T08:57:44.294Z,9.40
2022-10-30T08:58:44.293Z,9.60
2022-10-30T08:59:44.282Z,9.40
2022-10-30T09:00:44.284Z,9.00
2022-10-30T09:01:44.378Z,8.90
2022-10-30T09:02:44.344Z,8.60
2022-10-30T09:03:44.273Z,8.50
2022-10-30T09:04:44.265Z,8.50
2022-10-30T09:05:44.262Z,8.60
2022-10-30T09:06:44.258Z,8.20
2022-10-30T09:07:44.256Z,8.70
2022-10-30T09:08:44.251Z,8.50
2022-10-30T09:09:44.247Z,8.70
2022-10-30T09:10:44.245Z,8.00
2022-10-30T09:11:44.239Z,7.90
2022-10-30T09:12:44.235Z,7.80
2022-10-30T09:13:44.233Z,7.80
2022-10-30T09:14:44.230Z,7.70
2022-10-30T09:15:44.223Z,7.70
2022-10-30T09:16:44.223Z,7.50
2022-10-30T09:17:44.212Z,7.70
2022-10-30T09:18:44.210Z,7.40
2022-10-30T09:19:44.222Z,7.80
2022-10-30T09:20:44.248Z,7.50
2022-10-30T09:21:44.203Z,7.30
2022-10-30T09:22:44.197Z,7.00
2022-10-30T09:23:44.201Z,7.20
2022-10-30T09:24:44.192Z,7.30
2022-10-30T09:25:44.191Z,7.20
2022-10-30T09:26:44.185Z,7.20
2022-10-30T09:27:44.176Z,7.40
2022-10-30T09:28:44.175Z,7.10
2022-10-30T09:29:44.173Z,7.00
2022-10-30T09:30:44.171Z,6.70
2022-10-30T09:31:44.227Z,7.30
2022-10-30T09:32:44.164Z,7.10
2022-10-30T09:33:44.156Z,7.30
2022-10-30T09:34:44.154Z,6.40
2022-10-30T09:35:44.150Z,6.70
2022-10-30T09:36:44.161Z,6.80
2022-10-30T09:37:44.147Z,6.90
2022-10-30T09:38:44.141Z,6.70
2022-10-30T09:39:44.137Z,6.80
2022-10-30T09:40:44.132Z,6.50
2022-10-30T09:41:48.601Z,6.80
2022-10-30T09:42:44.128Z,6.80
2022-10-30T09:43:44.126Z,6.50
2022-10-30T09:44:48.771Z,7.00
2022-10-30T09:45:44.115Z,6.70
2022-10-30T09:46:44.126Z,6.50
2022-10-30T09:47:44.108Z,6.30
2022-10-30T09:48:44.108Z,6.70
2022-10-30T09:49:44.126Z,6.70
2022-10-30T09:50:44.101Z,6.10
2022-10-30T09:51:44.095Z,6.30
2022-10-30T09:52:44.136Z,6.00
2022-10-30T09:53:44.087Z,6.40
2022-10-30T09:54:44.090Z,6.00
2022-10-30T09:55:44.082Z,6.30
2022-10-30T09:56:44.077Z,6.50
2022-10-30T09:57:44.073Z,6.20
2022-10-30T09:58:44.073Z,6.40
2022-10-30T09:59:44.070Z,6.10
2022-10-30T10:00:44.065Z,6.40
2022-10-30T10:01:44.168Z,6.50
2022-10-30T10:02:44.195Z,6.30
2022-10-30T10:03:44.122Z,5.90
2022-10-30T10:04:44.053Z,5.80
2022-10-30T10:05:44.048Z,5.90
2022-10-30T10:06:44.049Z,5.90
2022-10-30T10:07:44.042Z,5.70
2022-10-30T10:08:44.038Z,5.90
2022-10-30T10:09:44.093Z,6.00
2022-10-30T10:10:44.030Z,6.00
2022-10-30T10:11:44.027Z,5.70
2022-10-30T10:12:44.030Z,6.20
2022-10-30T10:13:44.020Z,5.90
2022-10-30T10:14:44.019Z,5.80
2022-10-30T10:15:44.019Z,6.10
2022-10-30T10:16:44.011Z,6.10
2022-10-30T10:17:44.009Z,5.80
2022-10-30T10:18:44.007Z,5.70
2022-10-30T10:19:44.001Z,5.90
2022-10-30T10:20:44.010Z,5.80
2022-10-30T10:21:43.997Z,5.80
2022-10-30T10:22:43.994Z,5.90
2022-10-30T10:23:43.991Z,5.90
2022-10-30T10:24:43.986Z,5.80
2022-10-30T10:25:43.984Z,6.10
2022-10-30T10:26:43.978Z,6.00
2022-10-30T10:27:43.975Z,6.00
2022-10-30T10:28:43.973Z,5.50
2022-10-30T10:29:43.975Z,5.90
2022-10-30T10:30:43.979Z,5.80
2022-10-30T10:31:43.973Z,5.80
2022-10-30T10:32:43.972Z,5.80
2022-10-30T10:33:43.961Z,5.80
2022-10-30T10:34:43.955Z,5.50
2022-10-30T10:35:43.960Z,5.50
2022-10-30T10:36:43.948Z,5.70
2022-10-30T10:37:43.947Z,5.50
2022-10-30T10:38:43.944Z,5.40
2022-10-30T10:39:43.938Z,5.40
2022-10-30T10:40:43.938Z,5.60
2022-10-30T10:41:43.934Z,5.70
2022-10-30T10:42:43.933Z,5.20
2022-10-30T10:43:43.928Z,5.30
2022-10-30T10:44:43.927Z,5.30
2022-10-30T10:45:43.923Z,5.50
2022-10-30T10:46:43.916Z,5.40
2022-10-30T10:47:43.920Z,6.00
2022-10-30T10:48:43.913Z,5.20
2022-10-30T10:49:43.909Z,5.30
2022-10-30T10:50:43.907Z,5.10
2022-10-30T10:51:43.918Z,5.30
2022-10-30T10:52:43.916Z,5.30
2022-10-30T10:53:43.901Z,5.20
2022-10-30T10:54:43.902Z,5.30
2022-10-30T10:55:43.895Z,5.50
2022-10-30T10:56:43.888Z,5.10
2022-10-30T10:57:43.888Z,5.40
2022-10-30T10:58:43.886Z,5.30
2022-10-30T10:59:43.885Z,5.30
2022-10-30T11:00:43.884Z,4.90
2022-10-30T11:01:43.966Z,5.00
2022-10-30T11:02:43.928Z,5.00
2022-10-30T11:03:43.876Z,5.00
2022-10-30T11:04:43.866Z,4.70
2022-10-30T11:05:43.865Z,4.70
2022-10-30T11:06:43.862Z,4.80
2022-10-30T11:07:43.862Z,4.90
2022-10-30T11:08:43.861Z,4.90
2022-10-30T11:09:43.854Z,4.90
2022-10-30T11:10:43.853Z,4.90
2022-10-30T11:11:43.851Z,4.90
2022-10-30T11:12:43.846Z,5.00
2022-10-30T11:13:43.851Z,5.00
2022-10-30T11:14:43.843Z,4.80
2022-10-30T11:15:43.840Z,4.80
2022-10-30T11:16:43.839Z,5.20
2022-10-30T11:17:43.831Z,4.90
2022-10-30T11:18:43.831Z,5.00
2022-10-30T11:19:46.541Z,5.00
2022-10-30T11:20:43.830Z,4.90
2022-10-30T11:21:43.827Z,4.80
2022-10-30T11:22:43.822Z,4.70
2022-10-30T11:23:43.821Z,4.70
2022-10-30T11:24:43.820Z,4.80
2022-10-30T11:25:43.813Z,4.80
2022-10-30T11:26:43.814Z,4.90
2022-10-30T11:27:43.812Z,5.20
2022-10-30T11:28:43.806Z,4.60
2022-10-30T11:29:43.806Z,4.90
2022-10-30T11:30:43.803Z,4.80
2022-10-30T11:31:43.804Z,4.90
2022-10-30T11:32:46.810Z,4.70
2022-10-30T11:33:43.795Z,4.70
2022-10-30T11:34:43.794Z,4.90
2022-10-30T11:35:43.787Z,5.20
2022-10-30T11:36:43.789Z,4.70
2022-10-30T11:37:43.784Z,4.90
2022-10-30T11:38:43.789Z,5.00
2022-10-30T11:39:43.783Z,4.60
2022-10-30T11:40:43.779Z,4.90
2022-10-30T11:41:43.775Z,4.70
2022-10-30T11:42:43.773Z,4.70
2022-10-30T11:43:43.775Z,4.70
2022-10-30T11:44:43.774Z,4.80
2022-10-30T11:45:43.772Z,4.60
2022-10-30T11:46:43.764Z,4.50
2022-10-30T11:47:43.768Z,4.60
2022-10-30T11:48:43.760Z,4.80
2022-10-30T11:49:43.758Z,4.60
2022-10-30T11:50:43.757Z,4.20
2022-10-30T11:51:43.756Z,4.60
2022-10-30T11:52:43.756Z,4.90
2022-10-30T11:53:43.749Z,4.60
2022-10-30T11:54:43.748Z,4.70
2022-10-30T11:55:43.749Z,4.90
2022-10-30T11:56:43.745Z,4.40
2022-10-30T11:57:43.743Z,4.60
2022-10-30T11:58:43.740Z,4.40
2022-10-30T11:59:43.739Z,4.60
2022-10-30T12:00:43.737Z,4.50
2022-10-30T12:01:43.778Z,4.60
2022-10-30T12:02:43.738Z,4.70
2022-10-30T12:03:43.732Z,4.70
2022-10-30T12:04:43.726Z,4.60
2022-10-30T12:05:45.152Z,4.30
2022-10-30T12:06:43.727Z,4.30
2022-10-30T12:07:43.721Z,4.40
2022-10-30T12:08:43.719Z,4.50
2022-10-30T12:09:43.717Z,4.60
2022-10-30T12:10:43.716Z,4.70
2022-10-30T12:11:43.715Z,4.70
2022-10-30T12:12:43.710Z,4.60
2022-10-30T12:13:43.709Z,4.80
2022-10-30T12:14:43.707Z,4.60
2022-10-30T12:15:43.703Z,4.60
2022-10-30T12:16:43.711Z,4.60
2022-10-30T12:17:43.699Z,4.60
2022-10-30T12:18:43.881Z,4.30
2022-10-30T12:19:43.701Z,4.50
2022-10-30T12:20:43.698Z,4.70
2022-10-30T12:21:43.699Z,4.80
2022-10-30T12:22:43.729Z,4.70
2022-10-30T12:23:43.691Z,4.50
2022-10-30T12:24:43.690Z,4.80
2022-10-30T12:25:43.686Z,4.70
2022-10-30T12:26:43.685Z,4.50
2022-10-30T12:27:43.686Z,4.50
2022-10-30T12:28:43.681Z,4.80
2022-10-30T12:30:07.506Z,4.40
2022-10-30T12:30:43.676Z,4.80
2022-10-30T12:31:43.685Z,4.60
2022-10-30T12:32:43.728Z,4.50
2022-10-30T12:33:43.679Z,4.50
2022-10-30T12:34:43.670Z,4.60
2022-10-30T12:35:43.669Z,4.70
2022-10-30T12:36:43.667Z,4.50
2022-10-30T12:37:43.667Z,4.30
2022-10-30T12:38:43.663Z,4.60
2022-10-30T12:39:43.663Z,4.80
2022-10-30T12:40:43.662Z,4.70
2022-10-30T12:41:43.657Z,4.80
2022-10-30T12:42:43.721Z,4.50
2022-10-30T12:43:43.654Z,4.60
2022-10-30T12:44:43.658Z,4.90
2022-10-30T12:45:43.649Z,4.90
2022-10-30T12:46:43.649Z,4.50
2022-10-30T12:47:43.645Z,4.50
2022-10-30T12:48:43.648Z,4.70
2022-10-30T12:49:43.642Z,4.20
2022-10-30T12:50:43.645Z,4.50
2022-10-30T12:51:43.640Z,4.60
2022-10-30T12:52:43.639Z,4.80
2022-10-30T12:53:43.640Z,4.60
2022-10-30T12:54:43.638Z,4.30
2022-10-30T12:55:43.635Z,4.50
2022-10-30T12:56:43.641Z,4.30
2022-10-30T12:57:43.633Z,4.40
2022-10-30T12:58:43.627Z,4.60
2022-10-30T12:59:43.627Z,4.30
2022-10-30T13:00:43.627Z,4.20
2022-10-30T13:01:43.850Z,4.30
2022-10-30T13:02:43.622Z,4.30
2022-10-30T13:03:43.622Z,4.10
2022-10-30T13:04:56.470Z,4.50
2022-10-30T13:06:47.637Z,4.20
2022-10-30T13:07:47.633Z,4.70
2022-10-30T13:09:40.559Z,4.20
2022-10-30T13:10:40.538Z,4.20
2022-10-30T13:12:44.675Z,3.90
2022-10-30T13:13:44.656Z,4.10
2022-10-30T13:15:37.594Z,4.10
2022-10-30T13:16:37.583Z,4.40
2022-10-30T13:18:30.524Z,4.20
2022-10-30T13:19:30.514Z,4.60
2022-10-30T13:21:23.662Z,4.10
2022-10-30T13:22:23.628Z,4.20
2022-10-30T13:24:27.628Z,4.00
2022-10-30T13:25:27.622Z,4.70
2022-10-30T13:27:31.612Z,4.00
2022-10-30T13:28:31.613Z,4.20
2022-10-30T13:30:35.610Z,4.30
2022-10-30T13:31:35.593Z,4.30
2022-10-30T13:33:39.723Z,4.20
2022-10-30T13:34:39.646Z,4.20
2022-10-30T13:35:39.645Z,4.20
2022-10-30T13:36:39.727Z,4.20
2022-10-30T13:37:39.643Z,4.50
2022-10-30T13:38:39.638Z,4.20
2022-10-30T13:39:39.637Z,4.50
2022-10-30T13:40:39.632Z,4.40
2022-10-30T13:41:39.633Z,4.20
2022-10-30T13:42:39.661Z,4.20
2022-10-30T13:43:42.796Z,4.40
2022-10-30T13:44:39.630Z,4.30
2022-10-30T13:45:39.625Z,4.30
2022-10-30T13:46:39.625Z,4.00
2022-10-30T13:47:39.812Z,4.40
2022-10-30T13:48:39.689Z,4.20
2022-10-30T13:49:39.695Z,4.20
2022-10-30T13:50:39.616Z,3.90
2022-10-30T13:51:39.635Z,4.30
2022-10-30T13:52:39.702Z,4.20
2022-10-30T13:53:39.611Z,4.10
2022-10-30T13:54:39.610Z,4.00
2022-10-30T13:55:39.612Z,4.20
2022-10-30T13:56:39.636Z,4.20
2022-10-30T13:57:39.604Z,4.50
2022-10-30T13:58:39.663Z,4.20
2022-10-30T13:59:39.599Z,4.20
2022-10-30T14:00:39.599Z,4.30
2022-10-30T14:01:39.725Z,4.20
2022-10-30T14:02:39.786Z,4.20
2022-10-30T14:03:39.595Z,4.00
2022-10-30T14:04:39.596Z,4.10
2022-10-30T14:05:39.590Z,4.20
2022-10-30T14:06:39.590Z,4.10
2022-10-30T14:07:39.607Z,4.70
2022-10-30T14:08:39.584Z,4.10
2022-10-30T14:09:39.585Z,4.10
2022-10-30T14:10:39.579Z,4.20
2022-10-30T14:11:39.610Z,3.80
2022-10-30T14:12:39.579Z,4.50
2022-10-30T14:13:39.577Z,4.00
2022-10-30T14:14:39.574Z,4.50
2022-10-30T14:15:39.572Z,4.30
2022-10-30T14:16:39.576Z,4.10
2022-10-30T14:17:39.570Z,4.30
2022-10-30T14:18:39.571Z,4.10
2022-10-30T14:19:39.568Z,3.80
2022-10-30T14:20:39.573Z,4.40
2022-10-30T14:21:39.561Z,4.40
2022-10-30T14:22:39.560Z,4.20
2022-10-30T14:23:39.559Z,4.00
2022-10-30T14:24:39.557Z,4.40
2022-10-30T14:25:39.556Z,4.10
2022-10-30T14:26:39.555Z,4.20
2022-10-30T14:27:39.551Z,4.10
2022-10-30T14:28:39.548Z,4.40
2022-10-30T14:29:39.548Z,4.30
2022-10-30T14:30:39.548Z,4.20
2022-10-30T14:31:39.543Z,4.20
2022-10-30T14:32:39.541Z,4.20
2022-10-30T14:33:39.541Z,4.10
2022-10-30T14:34:39.540Z,4.40
2022-10-30T14:35:39.544Z,4.60
2022-10-30T14:36:39.542Z,4.70
2022-10-30T14:37:39.532Z,4.40
2022-10-30T14:38:39.535Z,4.50
2022-10-30T14:39:40.508Z,4.80